This is the latest recevied weather packets stored in our database for station/object GW1496. If no packets are shown the sender has not sent any weather packets the latest 10 day(s).
| Time | Temp. | Humidity | Pressure | Rain* | Wind** | Luminosity | Snow |
|---|---|---|---|---|---|---|---|
| 1777452889 | 14.44° C | 91% | 1003 hPa | 0 mm | - | - | - |
| 1777452153 | 14.44° C | 91% | 1004 hPa | 0 mm | - | - | - |
| 1777361787 | 12.78° C | 88% | 1006.7 hPa | 1.52 mm | - | - | - |
| 1777360346 | 13.33° C | 88% | 1008.8 hPa | 0.76 mm | - | - | - |
| 1777356025 | 17.22° C | 50% | 1007.7 hPa | 0 mm | - | - | - |
| 1777349561 | 17.78° C | 47% | 1008.8 hPa | 0 mm | - | - | - |
| 1777348490 | 17.78° C | 47% | 1008.8 hPa | 0 mm | - | - | - |
| 1777347395 | 17.78° C | 46% | 1008.8 hPa | 0 mm | - | - | - |
| 1777346688 | 17.78° C | 46% | 1008.8 hPa | 0 mm | - | - | - |
| 1777343791 | 18.33° C | 45% | 1008.8 hPa | 0 mm | - | - | - |
| 1777340930 | 19.44° C | 40% | 1008.8 hPa | 0 mm | - | - | - |
| 1777340547 | 20° C | 42% | 1008.8 hPa | 0 mm | - | - | - |
| 1777340207 | 20° C | 39% | 1008.8 hPa | 0 mm | - | - | - |
| 1777337298 | 21.11° C | 38% | 1007.7 hPa | 0 mm | - | - | - |
| 1777335890 | 21.67° C | 37% | 1007.7 hPa | 0 mm | - | - | - |
| 1777332627 | 22.78° C | 41% | 1007.7 hPa | 0 mm | - | - | - |
| 1777330491 | 23.89° C | 37% | 1007.7 hPa | 0 mm | - | - | - |
| 1777326861 | 26.67° C | 29% | 1007.7 hPa | 0 mm | - | - | - |
| 1777326171 | 26.67° C | 28% | 1007.7 hPa | 0 mm | - | - | - |
| 1777322919 | 26.67° C | 27% | 1007.7 hPa | 0 mm | - | - | - |
| 1777320052 | 26.11° C | 27% | 1007.7 hPa | 0 mm | - | - | - |
| 1777318247 | 26.11° C | 28% | 1007.7 hPa | 0 mm | - | - | - |
| 1777314287 | 25.56° C | 34% | 1009.8 hPa | 0 mm | - | - | - |
| 1777313213 | 25° C | 34% | 1009.8 hPa | 0 mm | - | - | - |
| 1777307091 | 21.11° C | 42% | 1010.8 hPa | 0 mm | - | - | - |
* Rain since midnight (hover to see other rain measurements)
** Current wind speed in m/s (hover to see current wind gust speed)